Caldwell, WV (24925)

5:15 PM EST en Diciembre 21, 2014 (GMT -0500)
Organ Cave Weather | Change Station
CLOSE
Current Station
Estación meteorológica personal
Location: Organ Cave, WV
Altura: 2310 ft
Estaciones meteorológicas cercanas
Aviso en curso: Freezing Rain Advisory

Alt 2310 ft 37.71 °N, 80.42 °W | Updated 5 minutes ago

Parcialmente nublado
Parcialmente nublado
37.0 ° F
Sensación térmica 37 ° F
N
1.1
Viento Variable Viento desde ESE

Hoy
Alta -- | Baja -- ° F
--% Posibilidad de precipitaciones
Ayer
Alta -- | Baja -- ° F
Precip. -- pul
7:33 AM 5:06 PM
Creciente menguante, 0% visible
Presión 30.16 pul
Visibilidad 10.0 Millas
Nubes Despejado
Vientos helados 37 ° F
Punto de rocío 32 ° F
Humedad 81%
Precipitaciones 0.00 pul
Espesor de la nieve No disponible.
UV 0 de una escala de 12
Polen .10 de una escala de 12
Calidad del aire No disponible.
Flu Activity No disponible.
METAR KLWB 212135Z AUTO 23003KT 10SM CLR 07/M02 A3016 RMK AO2 T00731020

More Conditions Fewer Conditions

Presión 30.16 pul
Visibilidad 10.0 Millas
Nubes Despejado
Vientos helados 37 ° F
Punto de rocío 32 ° F
Humedad 81%
Precipitaciones 0.00 pul
Espesor de la nieve No disponible.
UV 0 de una escala de 12
Polen .10 de una escala de 12
Calidad del aire No disponible.
Flu Activity No disponible.
METAR KLWB 212135Z AUTO 23003KT 10SM CLR 07/M02 A3016 RMK AO2 T00731020

More Conditions Fewer Conditions

10-Day Weather Forecast

Almanac

Astronomía

Dec. 21, 2014 Salida Puesta
Hora real
Crepúsculo civil
Crepúsculo náutico
Crepúsculo astronómico
Luna
Horas de luz
Horas de luz
Tomorrow will be .
, % of the Moon is Illuminated

Extremos de hoy

Máximos del estado Bajos del estado

Community

WunderPhotos

Upload Photos

1,779,498 ¡fotos cargadas!

WunderBlogs® & News

Nearby

Calidad del aire

  Calidad del aire Índice AQ Contaminante
Not available.

Grosos de nieve

Estación Profundido Altura

Actividad de terremotos

Ciudad Distance Mag. Tiempo y dato
Magnitud mínima muestra es 2,5.

Temperaturas de aguas costeras

Lugar Temperatura

Estaciones meteorológicas cercanas